Time;durP1;ratioP1;P1;durP2;ratioP2;P2;SDS_P1;SDS_P2;PMS_P1;PMS_P2;Temp;Humidity;BMP_temperature;BMP_pressure;BME280_temperature;BME280_humidity;BME280_pressure;Samples;Min_cycle;Max_cycle;Signal;HPM_P1;HPM_P2
2022/12/28 00:01:09;;;;;;;9.48;3.10;;;;;;;4.52;100.00;101518.41;4918607;29;20501;-80
2022/12/28 00:03:35;;;;;;;8.98;3.40;;;;;;;4.53;100.00;101514.75;4918777;29;20036;-80
2022/12/28 00:06:01;;;;;;;6.93;3.47;;;;;;;4.53;100.00;101511.19;4902570;29;20471;-80
2022/12/28 00:08:26;;;;;;;10.77;3.55;;;;;;;4.52;100.00;101515.72;4918205;29;20040;-80
2022/12/28 00:10:52;;;;;;;8.53;3.00;;;;;;;4.55;100.00;101501.97;4919568;29;20039;-80
2022/12/28 00:13:17;;;;;;;6.03;3.17;;;;;;;4.51;100.00;101489.00;4918431;29;20044;-80
2022/12/28 00:15:43;;;;;;;10.40;3.50;;;;;;;4.57;100.00;101489.19;4919026;29;20040;-80
2022/12/28 00:18:11;;;;;;;4.50;2.40;;;;;;;4.63;100.00;101476.97;4918603;29;20040;-80
2022/12/28 00:20:36;;;;;;;10.67;3.67;;;;;;;4.56;100.00;101476.78;4917908;29;20052;-80
2022/12/28 00:23:05;;;;;;;10.18;3.55;;;;;;;4.63;100.00;101465.38;4918773;29;20039;-80
2022/12/28 00:25:34;;;;;;;8.53;3.03;;;;;;;4.57;100.00;101446.19;4886940;29;20043;-80
2022/12/28 00:28:00;;;;;;;9.82;3.45;;;;;;;4.61;100.00;101430.59;4918504;29;20047;-80
2022/12/28 00:30:25;;;;;;;7.27;3.40;;;;;;;4.62;100.00;101432.31;4918248;29;20040;-80
2022/12/28 00:32:50;;;;;;;8.95;3.53;;;;;;;4.70;100.00;101429.63;4901840;29;20488;-80
2022/12/28 00:35:16;;;;;;;6.13;2.97;;;;;;;4.71;100.00;101428.63;4917789;29;20521;-80
2022/12/28 00:37:41;;;;;;;22.00;3.33;;;;;;;4.71;100.00;101428.63;4917994;29;20036;-80
2022/12/28 00:40:08;;;;;;;9.33;2.93;;;;;;;4.70;100.00;101426.94;4918530;29;20095;-80
2022/12/28 00:42:33;;;;;;;7.18;3.25;;;;;;;4.78;100.00;101428.81;4902126;29;20039;-80
2022/12/28 00:44:59;;;;;;;7.17;2.80;;;;;;;4.77;100.00;101428.97;4918006;29;20035;-80
2022/12/28 00:47:24;;;;;;;7.30;3.00;;;;;;;4.79;100.00;101421.59;4917784;29;20477;-80
2022/12/28 00:49:53;;;;;;;6.50;3.33;;;;;;;4.83;100.00;101414.91;4919645;29;20525;-80
2022/12/28 00:52:18;;;;;;;7.73;3.83;;;;;;;4.82;100.00;101407.84;4917469;29;20036;-80
2022/12/28 00:54:43;;;;;;;9.10;2.75;;;;;;;4.85;100.00;101402.13;4901671;29;20035;-80
2022/12/28 00:57:09;;;;;;;6.00;2.80;;;;;;;4.84;100.00;101390.53;4918718;29;20036;-80
2022/12/28 00:59:34;;;;;;;8.80;3.03;;;;;;;4.88;100.00;101391.88;4901981;29;20043;-81
2022/12/28 01:02:00;;;;;;;7.03;3.17;;;;;;;4.92;100.00;101400.47;4902196;29;20059;-81
2022/12/28 01:04:25;;;;;;;9.15;3.58;;;;;;;4.97;100.00;101387.34;4901766;29;20385;-80
2022/12/28 01:06:51;;;;;;;9.60;3.63;;;;;;;5.01;100.00;101394.09;4902264;29;20091;-80
2022/12/28 01:09:16;;;;;;;10.27;3.87;;;;;;;5.00;100.00;101378.13;4918747;29;20396;-80
2022/12/28 01:11:41;;;;;;;9.27;3.10;;;;;;;5.00;100.00;101378.94;4901383;29;20032;-80
2022/12/28 01:14:07;;;;;;;10.90;3.53;;;;;;;5.05;100.00;101368.53;4901748;29;20032;-81
2022/12/28 01:16:35;;;;;;;9.85;3.17;;;;;;;5.09;100.00;101369.91;4916877;29;20036;-80
2022/12/28 01:19:03;;;;;;;9.80;2.90;;;;;;;5.14;100.00;101368.53;4918312;29;20036;-80
2022/12/28 01:21:31;;;;;;;9.57;3.40;;;;;;;5.16;100.00;101348.53;4917330;29;20128;-80
2022/12/28 01:23:59;;;;;;;5.22;2.90;;;;;;;5.20;100.00;101359.81;4917156;29;20035;-80
2022/12/28 01:26:26;;;;;;;8.70;3.38;;;;;;;5.24;100.00;101362.00;4917340;29;20412;-81
2022/12/28 01:28:51;;;;;;;9.55;3.05;;;;;;;5.32;100.00;101358.47;4917270;29;20461;-80
2022/12/28 01:31:18;;;;;;;7.80;2.73;;;;;;;5.39;100.00;101355.97;4901952;29;20096;-80
2022/12/28 01:33:44;;;;;;;4.68;2.83;;;;;;;5.43;100.00;101342.00;4918030;29;20080;-80
2022/12/28 01:36:22;;;;;;;4.63;2.43;;;;;;;5.53;100.00;101339.09;4917917;29;20040;-80
2022/12/28 01:38:52;;;;;;;6.43;2.65;;;;;;;5.53;100.00;101344.50;4916990;29;20276;-80
2022/12/28 01:41:18;;;;;;;8.65;3.17;;;;;;;5.53;100.00;101335.59;4916871;29;20035;-81
2022/12/28 01:43:51;;;;;;;3.55;2.38;;;;;;;5.65;100.00;101333.38;4917342;29;20108;-80
2022/12/28 01:46:49;;;;;;;5.97;2.47;;;;;;;5.66;100.00;101324.31;4917582;29;20036;-81
2022/12/28 01:49:21;;;;;;;5.70;2.65;;;;;;;5.70;100.00;101329.16;4918144;29;20442;-80
2022/12/28 01:51:52;;;;;;;6.68;2.58;;;;;;;5.77;100.00;101326.63;4918643;29;20040;-80
2022/12/28 01:54:20;;;;;;;5.22;2.58;;;;;;;5.84;100.00;101316.00;4918624;29;20035;-81
2022/12/28 01:56:47;;;;;;;5.57;2.63;;;;;;;5.88;100.00;101315.47;4916598;29;20034;-80
2022/12/28 01:59:15;;;;;;;5.35;2.28;;;;;;;5.92;100.00;101303.34;4917150;29;20451;-80
2022/12/28 02:01:40;;;;;;;4.90;2.42;;;;;;;5.91;100.00;101298.97;4916719;29;20040;-80
2022/12/28 02:04:05;;;;;;;6.18;2.03;;;;;;;6.05;100.00;101294.72;4901406;29;20531;-80
2022/12/28 02:06:31;;;;;;;6.30;2.50;;;;;;;6.08;100.00;101288.16;4886023;29;20040;-80
2022/12/28 02:09:09;;;;;;;7.77;2.43;;;;;;;6.06;100.00;101269.47;4917548;29;20433;-80
2022/12/28 02:11:36;;;;;;;7.15;2.78;;;;;;;6.06;100.00;101274.03;4917182;29;20089;-80
2022/12/28 02:14:01;;;;;;;5.00;2.05;;;;;;;6.19;100.00;101277.00;4917909;29;20044;-81
2022/12/28 02:16:27;;;;;;;6.77;2.30;;;;;;;6.13;100.00;101275.84;4884983;29;20457;-81
2022/12/28 02:18:53;;;;;;;5.63;2.40;;;;;;;6.18;100.00;101256.47;4916199;29;20039;-81
2022/12/28 02:21:43;;;;;;;4.77;2.23;;;;;;;6.17;100.00;101256.63;4916332;29;20052;-81
2022/12/28 02:24:21;;;;;;;9.88;4.22;;;;;;;6.18;100.00;101259.16;4899833;29;20047;-81
2022/12/28 02:26:52;;;;;;;6.50;2.67;;;;;;;6.00;100.00;101245.13;4916804;29;20036;-81
2022/12/28 02:29:59;;;;;;;5.72;2.60;;;;;;;5.90;100.00;101247.97;4916512;29;20036;-81
2022/12/28 02:32:31;;;;;;;7.07;2.58;;;;;;;5.83;100.00;101222.75;4916487;29;20548;-81
2022/12/28 02:35:20;;;;;;;4.50;2.00;;;;;;;5.73;100.00;101214.91;4917421;29;20058;-81
2022/12/28 02:37:48;;;;;;;7.10;2.70;;;;;;;5.68;100.00;101218.09;4915788;29;20032;-81
2022/12/28 02:40:22;;;;;;;4.85;2.05;;;;;;;5.71;100.00;101217.75;4916332;29;20036;-81
2022/12/28 02:42:49;;;;;;;9.00;2.90;;;;;;;5.69;100.00;101217.09;4917387;29;20036;-81
2022/12/28 02:51:18;;;;;;;7.78;3.03;;;;;;;5.73;100.00;101215.75;4917148;29;20039;-81
2022/12/28 02:53:44;;;;;;;6.32;3.13;;;;;;;5.63;100.00;101215.09;4915964;29;20035;-80
2022/12/28 02:56:30;;;;;;;4.20;2.37;;;;;;;5.60;100.00;101200.13;4917948;29;20036;-80
2022/12/28 02:59:11;;;;;;;5.32;3.13;;;;;;;5.56;100.00;101187.19;4920141;29;20036;-80
2022/12/28 03:02:01;;;;;;;6.50;3.40;;;;;;;5.53;100.00;101193.75;4920231;29;20365;-80
2022/12/28 03:05:04;;;;;;;7.00;3.70;;;;;;;5.64;100.00;101200.63;4920336;29;20048;-80
2022/12/28 03:10:40;;;;;;;9.32;4.25;;;;;;;5.55;100.00;101185.50;4921527;29;20158;-79
2022/12/28 03:13:41;;;;;;;10.55;4.40;;;;;;;5.56;100.00;101171.03;4920870;29;20027;-80
2022/12/28 03:16:02;;;;;;;8.93;3.72;;;;;;;5.55;100.00;101191.75;4920509;29;20134;-79
2022/12/28 03:32:25;;;;;;;9.63;4.80;;;;;;;5.61;100.00;101163.31;4921114;29;20138;-79
2022/12/28 03:34:51;;;;;;;10.07;4.50;;;;;;;5.67;100.00;101165.28;4903614;29;20069;-79
2022/12/28 03:37:25;;;;;;;14.53;5.37;;;;;;;5.65;100.00;101153.84;4903056;29;20036;-79
2022/12/28 03:40:08;;;;;;;11.20;5.22;;;;;;;5.71;100.00;101188.13;4920681;29;20103;-79
2022/12/28 03:45:55;;;;;;;9.68;5.50;;;;;;;5.70;100.00;101151.47;4920686;29;20051;-79
2022/12/28 03:48:22;;;;;;;9.63;5.03;;;;;;;5.73;100.00;101159.19;4920823;29;20445;-79
2022/12/28 03:50:50;;;;;;;11.35;5.13;;;;;;;5.78;100.00;101155.97;4919155;29;20119;-79
2022/12/28 03:53:18;;;;;;;14.10;5.28;;;;;;;5.80;100.00;101173.63;4919767;29;20079;-80
2022/12/28 03:55:44;;;;;;;12.10;5.45;;;;;;;5.84;100.00;101136.41;4920318;29;20036;-80
2022/12/28 03:58:10;;;;;;;12.70;5.50;;;;;;;5.85;100.00;101134.56;4919764;29;20036;-80
2022/12/28 04:00:35;;;;;;;13.02;5.80;;;;;;;5.86;100.00;101137.09;4918628;29;20040;-80
2022/12/28 04:03:00;;;;;;;6.80;4.10;;;;;;;5.96;100.00;101139.53;4918821;29;20075;-79
2022/12/28 04:05:26;;;;;;;11.40;5.53;;;;;;;5.95;100.00;101133.31;4918390;29;20040;-80
2022/12/28 04:07:51;;;;;;;10.57;4.93;;;;;;;5.95;100.00;101130.63;4917051;29;20036;-80
2022/12/28 04:10:17;;;;;;;11.50;5.35;;;;;;;5.99;100.00;101123.03;4887724;29;20367;-79
2022/12/28 04:12:42;;;;;;;17.60;5.10;;;;;;;6.00;100.00;101122.03;4918525;29;20537;-80
2022/12/28 04:15:08;;;;;;;11.67;4.53;;;;;;;6.00;100.00;101140.06;4887153;29;20388;-80
2022/12/28 04:17:33;;;;;;;9.80;4.60;;;;;;;6.01;100.00;101133.66;4902371;29;20032;-80
2022/12/28 04:19:58;;;;;;;8.85;4.13;;;;;;;6.04;100.00;101120.66;4902532;29;20028;-80
2022/12/28 04:22:24;;;;;;;13.17;5.00;;;;;;;6.07;100.00;101131.09;4919692;29;20036;-80
2022/12/28 04:24:49;;;;;;;11.53;4.80;;;;;;;6.09;100.00;101125.53;4902613;29;20489;-80
2022/12/28 04:27:15;;;;;;;10.60;4.73;;;;;;;6.10;100.00;101116.44;4919271;29;20060;-79
2022/12/28 04:29:40;;;;;;;9.15;4.75;;;;;;;6.13;100.00;101124.97;4918392;29;20036;-80
2022/12/28 04:32:06;;;;;;;11.77;5.40;;;;;;;6.15;100.00;101122.09;4918025;29;20507;-79
2022/12/28 04:34:31;;;;;;;12.07;4.77;;;;;;;6.18;100.00;101129.00;4917880;29;20040;-80
2022/12/28 04:36:56;;;;;;;9.37;4.73;;;;;;;6.18;100.00;101127.13;4918003;29;20480;-80
2022/12/28 04:39:22;;;;;;;12.73;4.90;;;;;;;6.21;100.00;101121.38;4902600;29;20040;-80
2022/12/28 04:41:48;;;;;;;8.13;4.72;;;;;;;6.25;100.00;101125.41;4919012;29;20046;-80
2022/12/28 04:44:13;;;;;;;12.60;5.07;;;;;;;6.27;100.00;101123.34;4901880;29;20025;-80
2022/12/28 04:46:39;;;;;;;6.93;4.43;;;;;;;6.31;100.00;101124.66;4918028;29;20067;-79
2022/12/28 04:49:04;;;;;;;12.65;5.00;;;;;;;6.30;100.00;101117.63;4918854;29;20036;-79
2022/12/28 04:51:30;;;;;;;10.23;5.33;;;;;;;6.32;100.00;101112.06;4918808;29;20062;-80
2022/12/28 04:53:56;;;;;;;11.68;5.32;;;;;;;6.36;100.00;101116.03;4918758;29;20477;-80
2022/12/28 04:56:23;;;;;;;8.13;4.43;;;;;;;6.37;100.00;101131.19;4901703;29;20036;-79
2022/12/28 04:58:59;;;;;;;9.50;5.10;;;;;;;6.36;100.00;101105.25;4917764;29;20470;-80
2022/12/28 05:01:25;;;;;;;10.43;5.10;;;;;;;6.39;100.00;101115.69;4919007;29;20036;-80
2022/12/28 05:03:52;;;;;;;12.60;4.87;;;;;;;6.39;100.00;101115.69;4901883;29;20374;-79
2022/12/28 05:06:19;;;;;;;8.00;5.22;;;;;;;6.39;100.00;101113.00;4917568;29;20544;-80
2022/12/28 05:08:45;;;;;;;9.00;4.22;;;;;;;6.43;100.00;101117.00;4917422;29;20107;-80
2022/12/28 05:11:13;;;;;;;11.13;5.68;;;;;;;6.41;100.00;101116.34;4917486;29;20135;-80
2022/12/28 05:13:38;;;;;;;9.90;5.05;;;;;;;6.45;100.00;101119.50;4917295;29;20061;-80
2022/12/28 05:16:06;;;;;;;10.63;5.37;;;;;;;6.43;100.00;101108.06;4918887;29;20056;-81
2022/12/28 05:18:32;;;;;;;11.38;5.28;;;;;;;6.43;100.00;101117.00;4918220;29;20028;-79
2022/12/28 05:21:09;;;;;;;12.23;6.43;;;;;;;6.45;100.00;101111.41;4917261;29;20139;-79
2022/12/28 05:23:36;;;;;;;10.25;5.35;;;;;;;6.48;100.00;101113.75;4918026;29;20096;-80
2022/12/28 05:26:02;;;;;;;12.43;5.40;;;;;;;6.47;100.00;101099.44;4917407;29;20036;-79
2022/12/28 05:28:28;;;;;;;14.48;6.45;;;;;;;6.47;100.00;101099.44;4918104;29;20039;-79
2022/12/28 05:30:59;;;;;;;10.37;5.70;;;;;;;6.48;100.00;101100.28;4901416;29;20508;-80
2022/12/28 05:33:24;;;;;;;13.20;4.90;;;;;;;6.50;100.00;101106.34;4918050;29;20032;-80
2022/12/28 05:35:50;;;;;;;15.87;5.93;;;;;;;6.49;100.00;101110.88;4916900;29;20032;-79
2022/12/28 05:38:15;;;;;;;13.87;6.10;;;;;;;6.50;100.00;101100.94;4917253;29;20405;-79
2022/12/28 05:40:41;;;;;;;19.27;5.40;;;;;;;6.55;100.00;101100.41;4917295;29;20036;-79
2022/12/28 05:43:06;;;;;;;12.30;5.00;;;;;;;6.55;100.00;101105.78;4918133;29;20035;-80
2022/12/28 05:45:31;;;;;;;14.23;5.77;;;;;;;6.55;100.00;101103.91;4885437;29;20035;-79
2022/12/28 05:47:57;;;;;;;13.37;5.53;;;;;;;6.56;100.00;101102.06;4901085;29;20388;-79
2022/12/28 05:50:22;;;;;;;15.75;6.00;;;;;;;6.57;100.00;101103.72;4917522;29;20293;-79
2022/12/28 05:52:47;;;;;;;9.90;6.13;;;;;;;6.60;100.00;101092.56;4917775;29;20441;-79
2022/12/28 05:55:13;;;;;;;14.53;5.83;;;;;;;6.59;100.00;101099.84;4916579;29;20446;-79
2022/12/28 05:57:38;;;;;;;10.87;6.23;;;;;;;6.62;100.00;101098.66;4916837;29;20032;-79
2022/12/28 06:00:05;;;;;;;10.53;5.47;;;;;;;6.64;100.00;101089.34;4901429;29;20058;-79
2022/12/28 06:02:31;;;;;;;10.43;4.88;;;;;;;6.65;100.00;101100.97;4885850;29;20055;-79
2022/12/28 06:04:57;;;;;;;10.63;4.80;;;;;;;6.65;100.00;101091.00;4918131;29;20453;-79
2022/12/28 06:07:22;;;;;;;12.13;5.35;;;;;;;6.65;100.00;101077.53;4916951;29;20324;-79
2022/12/28 06:09:48;;;;;;;8.90;5.37;;;;;;;6.65;100.00;101082.09;4900785;29;20040;-79
2022/12/28 06:12:13;;;;;;;15.87;5.67;;;;;;;6.66;100.00;101081.91;4900730;29;20040;-79
2022/12/28 06:14:38;;;;;;;9.13;5.00;;;;;;;6.73;100.00;101100.03;4917640;29;20036;-79
2022/12/28 06:17:04;;;;;;;9.38;5.30;;;;;;;6.69;100.00;101064.53;4918155;29;20032;-79
2022/12/28 06:19:29;;;;;;;10.10;5.65;;;;;;;6.70;100.00;101062.66;4917134;29;20068;-79
2022/12/28 06:21:55;;;;;;;13.03;5.40;;;;;;;6.72;100.00;101057.91;4900947;29;20048;-79
2022/12/28 06:24:20;;;;;;;13.07;5.03;;;;;;;6.75;100.00;101060.28;4917586;29;20477;-79
2022/12/28 06:26:45;;;;;;;12.37;6.07;;;;;;;6.73;100.00;101057.75;4900513;29;20047;-79
2022/12/28 06:29:11;;;;;;;10.95;4.75;;;;;;;6.75;100.00;101049.47;4900646;29;20028;-80
2022/12/28 06:31:45;;;;;;;10.23;4.88;;;;;;;6.79;100.00;101048.06;4915581;29;20118;-79
2022/12/28 06:34:11;;;;;;;9.98;5.82;;;;;;;6.73;100.00;101036.19;4918064;29;20043;-79
2022/12/28 06:36:42;;;;;;;7.37;5.37;;;;;;;6.75;100.00;101030.59;4916123;29;20036;-79
2022/12/28 06:39:10;;;;;;;12.57;5.10;;;;;;;6.75;100.00;101031.44;4915761;29;20032;-79
2022/12/28 06:41:36;;;;;;;15.10;5.75;;;;;;;6.74;100.00;101021.66;4917119;29;20036;-79
2022/12/28 06:44:05;;;;;;;14.97;5.33;;;;;;;6.76;100.00;101029.56;4900421;29;20126;-79
2022/12/28 06:46:30;;;;;;;9.50;5.43;;;;;;;6.76;100.00;101018.78;4916847;29;20107;-80
2022/12/28 06:48:56;;;;;;;14.23;5.73;;;;;;;6.75;100.00;101031.44;4917125;29;20024;-79
2022/12/28 06:51:25;;;;;;;10.20;5.38;;;;;;;6.80;100.00;101026.31;4917302;29;20033;-80
2022/12/28 06:53:51;;;;;;;11.30;5.60;;;;;;;6.79;100.00;101030.03;4917292;29;20028;-80
2022/12/28 06:56:26;;;;;;;12.73;6.60;;;;;;;6.80;100.00;101034.38;4917172;29;20058;-80
2022/12/28 06:58:52;;;;;;;12.82;5.68;;;;;;;6.80;100.00;101020.91;4917264;29;20083;-80
2022/12/28 07:01:26;;;;;;;13.77;6.22;;;;;;;6.80;100.00;101029.00;4917523;29;20036;-80
2022/12/28 07:03:54;;;;;;;13.15;5.32;;;;;;;6.82;100.00;101026.13;4916256;29;20024;-80
2022/12/28 07:06:22;;;;;;;12.95;5.80;;;;;;;6.80;100.00;101020.09;4917098;29;20028;-79
2022/12/28 07:08:51;;;;;;;11.88;5.53;;;;;;;6.83;100.00;101020.53;4915789;29;20036;-80
2022/12/28 07:11:19;;;;;;;10.43;5.47;;;;;;;6.82;100.00;101021.56;4900487;29;20111;-80
2022/12/28 07:13:45;;;;;;;11.73;5.25;;;;;;;6.83;100.00;101027.78;4916139;29;20057;-80
2022/12/28 07:16:13;;;;;;;12.68;5.32;;;;;;;6.84;100.00;101018.69;4917002;29;20376;-79
2022/12/28 07:18:40;;;;;;;12.20;5.18;;;;;;;6.84;100.00;101024.09;4917614;29;20028;-79
2022/12/28 07:21:17;;;;;;;9.93;5.53;;;;;;;6.87;100.00;101021.00;4899596;29;20048;-79
2022/12/28 07:23:43;;;;;;;12.90;5.50;;;;;;;6.89;100.00;101018.13;4915774;29;20047;-78
2022/12/28 07:26:10;;;;;;;15.20;5.20;;;;;;;6.85;100.00;101006.88;4916998;29;20032;-78
2022/12/28 07:28:40;;;;;;;13.07;6.15;;;;;;;6.91;100.00;101021.47;4915544;29;20039;-83
2022/12/28 07:31:08;;;;;;;15.50;5.22;;;;;;;6.95;100.00;101022.78;4916085;29;20079;-86
2022/12/28 07:33:36;;;;;;;12.48;5.55;;;;;;;6.92;100.00;101013.19;4916805;29;20032;-83
2022/12/28 07:36:02;;;;;;;7.43;4.87;;;;;;;6.93;100.00;101024.81;4915657;29;20040;-79
2022/12/28 07:38:28;;;;;;;12.73;5.35;;;;;;;6.91;100.00;101016.06;4916551;29;20040;-79
2022/12/28 07:41:00;;;;;;;9.47;4.67;;;;;;;6.93;100.00;101014.03;4916937;29;20393;-78
2022/12/28 07:43:27;;;;;;;10.20;4.78;;;;;;;6.93;100.00;101014.03;4920369;29;20513;-79
2022/12/28 07:46:29;;;;;;;9.00;4.50;;;;;;;6.92;100.00;101007.78;4918893;29;20032;-78
2022/12/28 07:48:55;;;;;;;9.15;5.10;;;;;;;6.94;100.00;101013.00;4854871;29;20036;-79
2022/12/28 07:51:27;;;;;;;8.73;4.50;;;;;;;6.95;100.00;101020.06;4920199;29;20036;-79
2022/12/28 07:53:54;;;;;;;8.87;4.67;;;;;;;6.97;100.00;101026.97;4918718;29;20032;-79
2022/12/28 07:56:21;;;;;;;7.47;4.85;;;;;;;6.95;100.00;101026.31;4903091;29;20465;-79
2022/12/28 07:58:49;;;;;;;8.27;4.53;;;;;;;6.96;100.00;101017.19;4920296;29;20036;-79
2022/12/28 08:01:16;;;;;;;10.65;5.22;;;;;;;6.96;100.00;101019.06;4920242;29;20115;-79
2022/12/28 08:03:42;;;;;;;11.50;5.43;;;;;;;6.97;100.00;101024.25;4918821;29;20417;-81
2022/12/28 08:06:14;;;;;;;12.00;5.77;;;;;;;6.99;100.00;101026.78;4918776;29;20127;-79
2022/12/28 08:08:42;;;;;;;11.00;5.00;;;;;;;7.03;100.00;101025.38;4919825;29;20040;-79
2022/12/28 08:11:20;;;;;;;9.80;5.00;;;;;;;7.02;100.00;101013.72;4919774;29;20080;-79
2022/12/28 08:13:47;;;;;;;13.93;5.28;;;;;;;7.01;100.00;101025.56;4918735;29;20372;-79
2022/12/28 08:16:14;;;;;;;9.35;4.70;;;;;;;7.03;100.00;101017.28;4917967;29;20111;-79
2022/12/28 08:18:41;;;;;;;10.33;5.67;;;;;;;7.01;100.00;101027.41;4918719;29;20036;-79
2022/12/28 08:21:10;;;;;;;11.18;4.45;;;;;;;7.07;100.00;101023.97;4919354;29;20079;-79
2022/12/28 08:23:36;;;;;;;12.25;5.03;;;;;;;7.04;100.00;101013.53;4919391;29;20047;-79
2022/12/28 08:26:17;;;;;;;10.03;4.83;;;;;;;7.08;100.00;101022.94;4902463;29;20036;-79
2022/12/28 08:28:44;;;;;;;11.18;4.95;;;;;;;7.08;100.00;101012.16;4920082;29;20035;-79
2022/12/28 08:31:13;;;;;;;14.45;4.80;;;;;;;7.10;100.00;101011.97;4917918;29;20083;-79
2022/12/28 08:33:38;;;;;;;19.73;5.80;;;;;;;7.09;100.00;101026.50;4917640;29;20036;-79
2022/12/28 08:36:05;;;;;;;19.30;5.80;;;;;;;7.08;100.00;101022.94;4918513;29;20036;-79
2022/12/28 08:38:31;;;;;;;15.43;5.35;;;;;;;7.10;100.00;101018.22;4902768;29;20095;-79
2022/12/28 08:40:59;;;;;;;11.38;5.40;;;;;;;7.11;100.00;101019.03;4919217;29;20132;-79
2022/12/28 08:43:26;;;;;;;10.88;4.97;;;;;;;7.11;100.00;101003.69;4919342;29;20127;-79
2022/12/28 08:46:05;;;;;;;13.43;4.95;;;;;;;7.10;100.00;101010.13;4919162;29;20040;-79
2022/12/28 08:48:32;;;;;;;10.32;4.97;;;;;;;7.13;100.00;101011.56;4919168;29;20032;-79
2022/12/28 08:51:04;;;;;;;7.95;4.78;;;;;;;7.13;100.00;101012.44;4902020;29;20489;-79
2022/12/28 08:53:30;;;;;;;12.00;5.30;;;;;;;7.14;100.00;101005.16;4917990;29;20477;-79
2022/12/28 08:56:01;;;;;;;10.63;5.10;;;;;;;7.13;100.00;101007.03;4919204;29;20116;-79
2022/12/28 08:58:26;;;;;;;12.85;4.90;;;;;;;7.13;100.00;101016.97;4902920;29;20131;-79
2022/12/28 09:00:52;;;;;;;12.73;4.93;;;;;;;7.15;100.00;101017.66;4918686;29;20114;-79
2022/12/28 09:03:17;;;;;;;16.50;5.20;;;;;;;7.14;100.00;101024.88;4918711;29;20445;-80
2022/12/28 09:05:43;;;;;;;17.15;5.30;;;;;;;7.17;100.00;101008.31;4917706;29;20047;-80
2022/12/28 09:08:08;;;;;;;11.98;4.43;;;;;;;7.16;100.00;101014.75;4901655;29;20135;-81
2022/12/28 09:10:33;;;;;;;16.10;5.40;;;;;;;7.18;100.00;101009.16;4917533;29;20112;-78
2022/12/28 09:12:59;;;;;;;9.73;4.80;;;;;;;7.18;100.00;101006.47;4918541;29;20548;-79
2022/12/28 09:15:24;;;;;;;11.17;4.93;;;;;;;7.18;100.00;101006.47;4901508;29;20079;-79
2022/12/28 09:17:50;;;;;;;8.38;4.03;;;;;;;7.24;100.00;101018.38;4901691;29;20039;-78
2022/12/28 09:20:15;;;;;;;12.38;4.30;;;;;;;7.20;100.00;100999.00;4917492;29;20028;-78
2022/12/28 09:22:40;;;;;;;13.17;4.33;;;;;;;7.20;100.00;101024.16;4920080;29;20055;-79
2022/12/28 09:25:06;;;;;;;6.20;3.67;;;;;;;7.26;100.00;101013.59;4920434;29;20464;-78
2022/12/28 09:27:31;;;;;;;14.93;4.43;;;;;;;7.24;100.00;101023.78;4920287;29;20502;-79
2022/12/28 09:29:57;;;;;;;9.73;4.18;;;;;;;7.22;100.00;101015.88;4905105;29;20368;-78
2022/12/28 09:32:22;;;;;;;10.30;4.03;;;;;;;7.24;100.00;101011.09;4937182;29;20036;-79
2022/12/28 09:34:47;;;;;;;10.47;3.93;;;;;;;7.28;100.00;101008.84;4920459;29;20464;-79
2022/12/28 09:37:13;;;;;;;7.67;3.40;;;;;;;7.29;100.00;101018.63;4936774;29;20038;-79
2022/12/28 09:39:38;;;;;;;7.17;2.80;;;;;;;7.28;100.00;101006.16;4920079;29;20116;-80
2022/12/28 09:42:17;;;;;;;5.53;3.08;;;;;;;7.27;100.00;101021.50;4937083;29;20036;-78
2022/12/28 09:44:52;;;;;;;11.50;3.67;;;;;;;7.28;100.00;101012.41;4919908;29;20038;-78
2022/12/28 09:47:38;;;;;;;7.88;2.85;;;;;;;7.38;100.00;101017.47;4920289;29;20036;-78
2022/12/28 09:50:13;;;;;;;6.18;2.67;;;;;;;7.30;100.00;101013.03;4920096;29;20082;-78
2022/12/28 09:52:56;;;;;;;6.43;2.80;;;;;;;7.31;100.00;101009.31;4919821;29;20042;-78
2022/12/28 09:55:24;;;;;;;6.18;2.70;;;;;;;7.33;100.00;101018.06;4919755;29;20028;-78
2022/12/28 09:57:56;;;;;;;5.13;2.80;;;;;;;7.35;100.00;101005.22;4919577;29;20465;-78
2022/12/28 10:00:22;;;;;;;4.72;2.65;;;;;;;7.36;100.00;101009.56;4936851;29;20090;-78
2022/12/28 10:02:57;;;;;;;8.02;2.60;;;;;;;7.38;100.00;101003.97;4919495;29;20035;-79
2022/12/28 10:05:23;;;;;;;7.05;2.47;;;;;;;7.40;100.00;101003.78;4936767;29;20034;-79
2022/12/28 10:07:50;;;;;;;3.90;2.30;;;;;;;7.40;100.00;101012.75;4919769;29;20040;-79
2022/12/28 10:10:19;;;;;;;5.77;2.53;;;;;;;7.42;100.00;100999.06;4937073;29;20047;-78
2022/12/28 10:12:46;;;;;;;5.32;2.63;;;;;;;7.42;100.00;101023.34;4936522;29;20036;-78
2022/12/28 10:15:13;;;;;;;3.25;2.50;;;;;;;7.44;100.00;100995.16;4919734;29;20032;-78
2022/12/28 10:17:38;;;;;;;5.57;2.38;;;;;;;7.44;100.00;101000.53;4919427;29;20032;-78
2022/12/28 10:20:06;;;;;;;4.87;2.40;;;;;;;7.46;100.00;100993.06;4919507;29;20140;-79
2022/12/28 10:22:42;;;;;;;3.50;2.30;;;;;;;7.45;100.00;101001.38;4904623;29;20122;-79
2022/12/28 10:25:16;;;;;;;5.65;2.70;;;;;;;7.46;100.00;100989.56;4919149;29;20492;-78
2022/12/28 10:27:43;;;;;;;4.53;2.40;;;;;;;7.47;100.00;100989.38;4936407;29;20032;-78
2022/12/28 10:30:25;;;;;;;5.18;2.83;;;;;;;7.48;100.00;100990.19;4936966;29;20043;-78
2022/12/28 10:32:56;;;;;;;5.93;2.97;;;;;;;7.48;100.00;100977.50;4936500;29;20503;-78
2022/12/28 10:35:36;;;;;;;5.75;3.28;;;;;;;7.49;100.00;100984.59;4936406;29;20028;-79
2022/12/28 10:38:20;;;;;;;6.97;4.07;;;;;;;7.50;100.00;100991.69;4936123;29;20531;-78
2022/12/28 10:41:09;;;;;;;8.45;3.50;;;;;;;7.50;100.00;100986.28;4919295;29;20035;-78
2022/12/28 10:43:38;;;;;;;6.80;3.20;;;;;;;7.51;100.00;100977.16;4935919;29;20549;-79
2022/12/28 10:46:12;;;;;;;7.87;2.87;;;;;;;7.51;100.00;100976.31;4919186;29;20087;-79
2022/12/28 10:48:38;;;;;;;7.43;2.92;;;;;;;7.54;100.00;100973.22;4936339;29;20032;-79
2022/12/28 10:51:11;;;;;;;6.80;3.00;;;;;;;7.53;100.00;100982.38;4936350;29;20031;-78
2022/12/28 10:53:39;;;;;;;6.55;3.35;;;;;;;7.58;100.00;100979.09;4919476;29;20464;-78
2022/12/28 10:56:16;;;;;;;7.00;3.67;;;;;;;7.53;100.00;100980.50;4919009;29;20048;-78
2022/12/28 10:58:44;;;;;;;10.63;3.00;;;;;;;7.59;100.00;100968.09;4919323;29;20032;-78
2022/12/28 11:01:12;;;;;;;8.43;3.30;;;;;;;7.54;100.00;100965.97;4936650;29;20032;-78
2022/12/28 11:03:39;;;;;;;8.73;3.65;;;;;;;7.57;100.00;100980.09;4918711;29;20039;-79
2022/12/28 11:06:08;;;;;;;7.25;3.55;;;;;;;7.54;100.00;100965.97;4919235;29;20043;-78
2022/12/28 11:08:35;;;;;;;11.38;3.60;;;;;;;7.53;100.00;100961.59;4919003;29;20031;-78
2022/12/28 11:11:00;;;;;;;8.10;4.07;;;;;;;7.53;100.00;100975.09;4903551;29;20452;-78
2022/12/28 11:13:26;;;;;;;14.32;4.00;;;;;;;7.52;100.00;100954.50;4919239;29;20055;-78
2022/12/28 11:15:52;;;;;;;8.17;3.50;;;;;;;7.55;100.00;100956.81;4935876;29;20471;-78
2022/12/28 11:18:19;;;;;;;9.05;4.00;;;;;;;7.52;100.00;100949.09;4939739;29;20291;-78
2022/12/28 11:20:49;;;;;;;9.93;3.88;;;;;;;7.53;100.00;100960.75;4939361;29;20507;-78
2022/12/28 11:23:24;;;;;;;9.43;4.78;;;;;;;7.54;100.00;100976.78;4922865;29;20024;-78
2022/12/28 11:25:50;;;;;;;5.72;3.30;;;;;;;7.59;100.00;100964.53;4939566;29;20032;-79
2022/12/28 11:28:19;;;;;;;10.10;3.53;;;;;;;7.53;100.00;100936.47;4922572;29;20051;-79
2022/12/28 11:30:46;;;;;;;9.55;3.92;;;;;;;7.57;100.00;100942.31;4939818;29;20063;-79
2022/12/28 11:33:26;;;;;;;10.27;3.58;;;;;;;7.53;100.00;100931.88;4939415;29;20042;-79
2022/12/28 11:35:54;;;;;;;7.00;3.10;;;;;;;7.56;100.00;100936.06;4922317;29;20452;-78
2022/12/28 11:38:40;;;;;;;8.73;3.95;;;;;;;7.53;100.00;100922.97;4939121;29;20035;-78
2022/12/28 11:41:32;;;;;;;9.23;3.90;;;;;;;7.54;100.00;100911.09;4922218;29;20064;-78
2022/12/28 11:44:01;;;;;;;11.10;3.70;;;;;;;7.52;100.00;100915.88;4916860;29;20118;-78
2022/12/28 11:46:26;;;;;;;8.40;3.20;;;;;;;7.54;100.00;100909.28;4922449;29;20118;-78
2022/12/28 11:48:57;;;;;;;10.80;3.10;;;;;;;7.51;100.00;100916.91;4939255;29;20444;-78
2022/12/28 11:51:33;;;;;;;13.13;3.50;;;;;;;7.52;100.00;100914.00;4939141;29;20028;-79
2022/12/28 11:53:59;;;;;;;7.70;3.40;;;;;;;7.49;100.00;100905.47;4939333;29;20040;-78
2022/12/28 11:56:27;;;;;;;7.40;2.95;;;;;;;7.49;100.00;100894.69;4921908;29;20035;-78